Time;durP1;ratioP1;P1;durP2;ratioP2;P2;SDS_P1;SDS_P2;PMS_P1;PMS_P2;Temp;Humidity;BMP_temperature;BMP_pressure;BME280_temperature;BME280_humidity;BME280_pressure;Samples;Min_cycle;Max_cycle;Signal;HPM_P1;HPM_P2
2022/04/16 00:00:27;;;;;;;20.98;13.02;;;7.30;99.90;;;;;;5006159;28;20137;-67
2022/04/16 00:02:54;;;;;;;25.02;14.52;;;7.20;99.90;;;;;;5006963;28;20085;-67
2022/04/16 00:05:23;;;;;;;27.08;14.38;;;7.30;99.90;;;;;;5006915;28;20129;-67
2022/04/16 00:08:06;;;;;;;24.80;13.20;;;7.30;99.90;;;;;;5007082;28;20516;-67
2022/04/16 00:10:37;;;;;;;20.35;13.57;;;7.30;99.90;;;;;;5005547;28;20077;-67
2022/04/16 00:13:04;;;;;;;23.45;14.23;;;7.20;99.90;;;;;;5007112;28;20081;-67
2022/04/16 00:15:30;;;;;;;24.10;12.85;;;7.20;99.90;;;;;;5006678;28;20129;-67
2022/04/16 00:17:56;;;;;;;22.05;13.32;;;7.20;99.90;;;;;;4989980;28;20136;-67
2022/04/16 00:20:26;;;;;;;22.23;13.15;;;7.10;99.90;;;;;;5003342;28;20074;-67
2022/04/16 00:22:53;;;;;;;20.33;13.27;;;7.10;99.90;;;;;;4986104;28;20062;-67
2022/04/16 00:25:19;;;;;;;25.48;14.23;;;7.10;99.90;;;;;;4988162;28;20048;-67
2022/04/16 00:27:46;;;;;;;21.58;13.63;;;7.10;99.90;;;;;;4986322;28;20117;-67
2022/04/16 00:30:12;;;;;;;18.30;12.73;;;7.10;99.90;;;;;;4987412;28;20046;-67
2022/04/16 00:32:40;;;;;;;20.63;12.88;;;7.20;99.90;;;;;;4999379;28;20381;-67
2022/04/16 00:35:07;;;;;;;23.90;13.95;;;7.10;99.90;;;;;;5007393;28;20053;-67
2022/04/16 00:37:34;;;;;;;29.73;14.95;;;7.20;99.90;;;;;;5009927;28;20046;-66
2022/04/16 00:40:00;;;;;;;23.40;14.48;;;7.30;99.90;;;;;;5009611;28;20072;-67
2022/04/16 00:42:32;;;;;;;26.75;14.43;;;7.50;99.90;;;;;;5010609;28;20548;-67
2022/04/16 00:44:57;;;;;;;22.80;14.88;;;7.60;99.90;;;;;;5010536;28;20069;-67
2022/04/16 00:47:23;;;;;;;23.10;14.52;;;7.70;99.90;;;;;;5010254;28;20045;-67
2022/04/16 00:49:49;;;;;;;35.80;16.95;;;7.80;99.90;;;;;;5009453;28;20060;-67
2022/04/16 00:52:14;;;;;;;26.15;15.98;;;7.80;99.90;;;;;;5026723;28;20137;-67
2022/04/16 00:54:40;;;;;;;24.95;17.08;;;7.80;99.90;;;;;;5010382;28;20060;-67
2022/04/16 00:57:06;;;;;;;35.50;18.63;;;7.90;99.90;;;;;;5006447;28;20477;-67
2022/04/16 00:59:31;;;;;;;36.42;19.40;;;7.90;99.90;;;;;;5007984;28;20075;-67
2022/04/16 01:01:59;;;;;;;34.33;19.38;;;8.00;99.90;;;;;;5008883;28;20077;-67
2022/04/16 01:04:26;;;;;;;32.25;19.55;;;8.00;99.90;;;;;;5011340;28;20069;-67
2022/04/16 01:06:52;;;;;;;46.33;20.65;;;8.00;99.90;;;;;;5009059;28;20052;-67
2022/04/16 01:09:17;;;;;;;40.80;20.25;;;8.00;99.90;;;;;;5010578;28;20054;-67
2022/04/16 01:11:44;;;;;;;33.42;19.25;;;8.00;99.90;;;;;;5011157;28;20077;-67
2022/04/16 01:14:10;;;;;;;31.88;18.73;;;8.00;99.90;;;;;;5010407;28;20480;-67
2022/04/16 01:16:36;;;;;;;37.08;20.20;;;8.10;99.90;;;;;;5009894;28;20053;-67
2022/04/16 01:19:10;;;;;;;29.60;19.63;;;8.10;99.90;;;;;;5009332;28;20072;-67
2022/04/16 01:21:36;;;;;;;32.50;20.08;;;8.20;99.90;;;;;;5011101;28;20046;-67
2022/04/16 01:24:02;;;;;;;34.00;20.38;;;8.20;99.90;;;;;;5008582;28;20083;-67
2022/04/16 01:26:29;;;;;;;36.13;21.27;;;8.30;99.90;;;;;;5009743;28;20065;-67
2022/04/16 01:28:55;;;;;;;42.38;22.98;;;8.30;99.90;;;;;;4993231;28;20072;-67
2022/04/16 01:31:20;;;;;;;32.50;21.00;;;8.30;99.90;;;;;;5009766;28;20492;-67
2022/04/16 01:33:46;;;;;;;31.33;19.90;;;8.30;99.90;;;;;;5026319;28;20135;-67
2022/04/16 01:36:12;;;;;;;29.30;18.75;;;8.30;99.90;;;;;;5008173;28;20539;-67
2022/04/16 01:38:38;;;;;;;25.17;16.30;;;8.30;99.90;;;;;;5010873;28;20109;-67
2022/04/16 01:41:04;;;;;;;19.55;13.60;;;8.30;99.90;;;;;;5008824;28;20046;-67
2022/04/16 01:43:31;;;;;;;21.52;14.43;;;8.20;99.90;;;;;;5009101;28;20049;-67
2022/04/16 01:45:58;;;;;;;23.85;15.85;;;8.20;99.90;;;;;;5009625;28;20064;-67
2022/04/16 01:48:27;;;;;;;27.25;14.48;;;8.20;99.90;;;;;;5009733;28;20045;-67
2022/04/16 01:50:54;;;;;;;25.23;13.95;;;8.20;99.90;;;;;;4992776;28;20484;-67
2022/04/16 01:53:21;;;;;;;22.50;14.45;;;8.10;99.90;;;;;;5007910;28;20041;-67
2022/04/16 01:55:47;;;;;;;22.13;14.30;;;8.10;99.90;;;;;;5007265;28;20527;-66
2022/04/16 01:58:14;;;;;;;22.70;16.00;;;8.10;99.90;;;;;;5009532;28;20054;-67
2022/04/16 02:00:40;;;;;;;31.98;17.55;;;8.10;99.90;;;;;;5008724;28;20050;-66
2022/04/16 02:03:07;;;;;;;29.83;17.80;;;8.20;99.90;;;;;;5007030;28;20041;-67
2022/04/16 02:05:33;;;;;;;28.88;18.05;;;8.20;99.90;;;;;;5004063;28;20064;-67
2022/04/16 02:07:59;;;;;;;30.15;18.60;;;8.20;99.90;;;;;;5001396;28;20042;-67
2022/04/16 02:10:25;;;;;;;26.85;16.13;;;8.20;99.90;;;;;;5007704;28;20046;-67
2022/04/16 02:12:50;;;;;;;27.40;17.80;;;8.20;99.90;;;;;;5004978;28;20042;-67
2022/04/16 02:15:16;;;;;;;24.95;14.48;;;8.10;99.90;;;;;;5006644;28;20037;-67
2022/04/16 02:17:42;;;;;;;25.40;14.93;;;8.00;99.90;;;;;;5008737;28;20034;-67
2022/04/16 02:20:09;;;;;;;25.67;14.18;;;7.90;99.90;;;;;;5022038;28;20047;-67
2022/04/16 02:22:43;;;;;;;25.48;14.25;;;7.80;99.90;;;;;;5008721;28;20660;-67
2022/04/16 02:25:10;;;;;;;23.35;14.68;;;7.70;99.90;;;;;;5009424;28;20049;-67
2022/04/16 02:27:35;;;;;;;22.23;14.48;;;7.60;99.90;;;;;;5008245;28;20566;-67
2022/04/16 02:30:13;;;;;;;22.73;14.73;;;7.50;99.90;;;;;;5009673;28;20038;-67
2022/04/16 02:32:44;;;;;;;18.73;13.00;;;7.40;99.90;;;;;;5006769;28;20045;-67
2022/04/16 02:35:15;;;;;;;20.48;13.82;;;7.30;99.90;;;;;;5009849;28;20050;-67
2022/04/16 02:37:42;;;;;;;24.67;14.88;;;7.20;99.90;;;;;;5007569;28;20085;-67
2022/04/16 02:40:09;;;;;;;22.10;13.60;;;7.10;99.90;;;;;;4992058;28;20049;-67
2022/04/16 02:42:39;;;;;;;20.92;13.05;;;7.00;99.90;;;;;;5007576;28;20133;-67
2022/04/16 02:47:52;;;;;;;21.42;13.20;;;6.90;99.90;;;;;;5009569;28;20493;-67
2022/04/16 02:50:19;;;;;;;18.95;12.68;;;6.90;99.90;;;;;;5007302;28;20456;-67
2022/04/16 02:52:46;;;;;;;17.77;12.38;;;6.90;99.90;;;;;;5008635;28;20132;-67
2022/04/16 02:55:16;;;;;;;19.77;12.95;;;7.00;99.90;;;;;;5007190;28;20611;-67
2022/04/16 02:57:43;;;;;;;17.85;11.88;;;7.00;99.90;;;;;;5007751;28;20140;-67
2022/04/16 03:00:11;;;;;;;17.38;12.18;;;7.00;99.90;;;;;;4971115;28;20057;-66
2022/04/16 03:02:37;;;;;;;19.90;12.15;;;7.00;99.90;;;;;;4999649;28;20038;-67
2022/04/16 03:05:09;;;;;;;21.17;13.07;;;7.00;99.90;;;;;;5009726;28;20045;-67
2022/04/16 03:07:37;;;;;;;23.17;12.73;;;7.00;99.90;;;;;;5006461;28;20107;-67
2022/04/16 03:10:05;;;;;;;22.08;12.25;;;6.90;99.90;;;;;;5008065;28;20057;-67
2022/04/16 03:13:00;;;;;;;18.60;12.38;;;6.90;99.90;;;;;;5006661;28;20049;-66
2022/04/16 03:18:10;;;;;;;17.45;12.00;;;6.90;99.90;;;;;;5009173;28;20046;-67
2022/04/16 03:20:37;;;;;;;18.95;12.73;;;6.80;99.90;;;;;;5007780;28;20120;-67
2022/04/16 03:23:03;;;;;;;17.25;11.80;;;6.80;99.90;;;;;;5009272;28;20076;-67
2022/04/16 03:25:30;;;;;;;19.15;11.95;;;6.90;99.90;;;;;;5007628;28;20042;-67
2022/04/16 03:27:57;;;;;;;17.70;11.95;;;6.80;99.90;;;;;;5008919;28;20404;-67
2022/04/16 03:30:23;;;;;;;17.80;12.80;;;6.80;99.90;;;;;;5006806;28;20065;-67
2022/04/16 03:32:50;;;;;;;23.10;14.30;;;6.80;99.90;;;;;;4990193;28;20124;-67
2022/04/16 03:35:19;;;;;;;25.52;15.52;;;6.80;99.90;;;;;;5008420;28;20065;-67
2022/04/16 03:37:45;;;;;;;27.48;16.92;;;6.90;99.90;;;;;;5005987;28;20061;-67
2022/04/16 03:40:15;;;;;;;21.63;15.35;;;6.90;99.90;;;;;;5008993;28;20082;-67
2022/04/16 03:42:45;;;;;;;25.25;15.30;;;6.90;99.90;;;;;;5005760;28;20492;-67
2022/04/16 03:45:20;;;;;;;24.55;15.00;;;6.90;99.90;;;;;;5008864;28;20054;-67
2022/04/16 03:47:47;;;;;;;19.98;13.90;;;6.90;99.90;;;;;;5006820;28;20168;-67
2022/04/16 03:50:12;;;;;;;21.63;14.85;;;6.90;99.90;;;;;;5008185;28;20618;-67
2022/04/16 03:52:42;;;;;;;26.65;15.95;;;6.90;99.90;;;;;;5006930;28;20046;-67
2022/04/16 04:00:45;;;;;;;21.05;12.50;;;6.90;99.90;;;;;;5008146;28;20073;-67
2022/04/16 04:03:11;;;;;;;28.98;14.50;;;6.90;99.90;;;;;;5006050;28;20049;-67
2022/04/16 04:05:38;;;;;;;20.20;13.13;;;6.80;99.90;;;;;;5006740;28;20057;-67
2022/04/16 04:08:05;;;;;;;19.50;13.00;;;6.80;99.90;;;;;;5005969;28;20081;-67
2022/04/16 04:10:31;;;;;;;19.88;12.98;;;6.80;99.90;;;;;;5007839;28;20049;-67
2022/04/16 04:12:57;;;;;;;19.17;12.88;;;6.80;99.90;;;;;;5006448;28;20420;-67
2022/04/16 04:15:23;;;;;;;20.73;13.52;;;6.80;99.90;;;;;;5008682;28;20042;-67
2022/04/16 04:17:50;;;;;;;18.90;12.52;;;6.70;99.90;;;;;;5007465;28;20050;-67
2022/04/16 04:20:16;;;;;;;19.00;12.88;;;6.70;99.90;;;;;;5008191;28;20037;-67
2022/04/16 04:22:42;;;;;;;22.15;13.05;;;6.70;99.90;;;;;;5007618;28;20040;-67
2022/04/16 04:25:08;;;;;;;20.88;12.70;;;6.60;99.90;;;;;;4973495;28;20463;-67
2022/04/16 04:27:34;;;;;;;22.85;13.10;;;6.60;99.90;;;;;;5007857;28;20045;-67
2022/04/16 04:30:01;;;;;;;23.30;13.77;;;6.60;99.90;;;;;;5007205;28;20050;-67
2022/04/16 04:32:30;;;;;;;20.77;13.00;;;6.60;99.90;;;;;;4975317;28;20045;-67
2022/04/16 04:34:56;;;;;;;18.75;12.27;;;6.60;99.90;;;;;;5006916;28;20132;-67
2022/04/16 04:37:22;;;;;;;21.23;13.75;;;6.60;99.90;;;;;;5008274;28;20572;-67
2022/04/16 04:39:49;;;;;;;19.33;12.63;;;6.60;99.90;;;;;;4989939;28;20576;-66
2022/04/16 04:42:29;;;;;;;19.30;12.52;;;6.60;99.90;;;;;;5006005;28;20053;-66
2022/04/16 04:44:55;;;;;;;22.23;13.20;;;6.60;99.90;;;;;;5006530;28;20052;-67
2022/04/16 04:47:21;;;;;;;24.60;13.77;;;6.60;99.90;;;;;;5007558;28;20042;-67
2022/04/16 04:49:47;;;;;;;17.98;12.30;;;6.60;99.90;;;;;;5006440;28;20050;-67
2022/04/16 04:52:21;;;;;;;20.75;12.43;;;6.60;99.90;;;;;;5005895;28;20062;-66
2022/04/16 04:54:47;;;;;;;19.90;13.10;;;6.60;99.90;;;;;;5007374;28;20506;-67
2022/04/16 04:57:13;;;;;;;26.85;12.80;;;6.60;99.90;;;;;;5007607;28;20081;-66
2022/04/16 04:59:39;;;;;;;26.98;13.95;;;6.60;99.90;;;;;;5006948;28;20184;-67
2022/04/16 05:02:05;;;;;;;20.45;13.68;;;6.60;99.90;;;;;;5006467;28;20057;-67
2022/04/16 05:04:32;;;;;;;24.67;13.70;;;6.60;99.90;;;;;;5006736;28;20042;-67
2022/04/16 05:06:57;;;;;;;22.05;12.70;;;6.50;99.90;;;;;;5008147;28;20042;-67
2022/04/16 05:09:24;;;;;;;22.83;12.95;;;6.40;99.90;;;;;;5005203;28;20054;-67
2022/04/16 05:11:49;;;;;;;21.20;13.05;;;6.40;99.90;;;;;;5006638;28;20042;-67
2022/04/16 05:14:15;;;;;;;21.88;11.95;;;6.30;99.90;;;;;;5006062;28;20057;-67
2022/04/16 05:16:41;;;;;;;20.48;13.00;;;6.30;99.90;;;;;;5005431;28;20489;-67
2022/04/16 05:19:07;;;;;;;20.25;12.77;;;6.30;99.90;;;;;;5006483;28;20061;-67
2022/04/16 05:21:33;;;;;;;22.08;12.23;;;6.20;99.90;;;;;;5006089;28;20134;-67
2022/04/16 05:23:59;;;;;;;19.27;11.40;;;6.20;99.90;;;;;;5008260;28;20046;-67
2022/04/16 05:26:25;;;;;;;21.63;12.35;;;6.20;99.90;;;;;;5008831;28;20064;-67
2022/04/16 05:28:51;;;;;;;21.70;12.27;;;6.30;99.90;;;;;;5009401;28;20046;-67
2022/04/16 05:31:19;;;;;;;18.42;10.82;;;6.30;99.90;;;;;;5010412;28;20108;-68
2022/04/16 05:36:29;;;;;;;23.40;12.13;;;6.40;99.90;;;;;;5009426;28;20504;-67
2022/04/16 05:38:55;;;;;;;20.65;12.02;;;6.40;99.90;;;;;;5008396;28;20080;-67
2022/04/16 05:41:21;;;;;;;16.52;11.73;;;6.50;99.90;;;;;;5008407;28;20042;-67
2022/04/16 05:43:48;;;;;;;19.88;11.32;;;6.60;99.90;;;;;;5008495;28;20045;-67
2022/04/16 05:46:19;;;;;;;20.55;11.20;;;6.60;99.90;;;;;;5007654;28;20392;-67
2022/04/16 05:48:45;;;;;;;19.98;10.02;;;6.60;99.90;;;;;;5006983;28;20042;-67
2022/04/16 05:51:11;;;;;;;18.85;10.23;;;6.60;99.90;;;;;;5007569;28;20053;-67
2022/04/16 05:53:39;;;;;;;16.63;10.00;;;6.70;99.90;;;;;;5008935;28;20049;-67
2022/04/16 05:56:04;;;;;;;16.92;10.20;;;6.70;99.90;;;;;;5007287;28;20057;-67
2022/04/16 05:58:31;;;;;;;17.63;10.00;;;6.70;99.90;;;;;;5007955;28;20060;-67
2022/04/16 06:00:57;;;;;;;16.80;10.15;;;6.70;99.90;;;;;;5007336;28;20048;-67
2022/04/16 06:03:23;;;;;;;15.25;9.65;;;6.80;99.90;;;;;;5008738;28;20034;-67
2022/04/16 06:05:50;;;;;;;14.77;8.75;;;6.90;99.90;;;;;;5006918;28;20098;-67
2022/04/16 06:08:16;;;;;;;15.57;8.57;;;7.20;99.90;;;;;;5007944;28;20550;-66
2022/04/16 06:10:42;;;;;;;12.02;8.20;;;7.10;99.90;;;;;;5007356;28;20046;-67
2022/04/16 06:13:07;;;;;;;16.80;8.43;;;7.00;99.90;;;;;;5008146;28;20504;-67
2022/04/16 06:15:33;;;;;;;13.30;7.93;;;7.10;99.90;;;;;;5009003;28;20490;-67
2022/04/16 06:17:59;;;;;;;15.85;8.10;;;7.30;99.90;;;;;;5007630;28;20093;-67
2022/04/16 06:20:24;;;;;;;14.10;8.27;;;7.20;99.90;;;;;;5007477;28;20052;-67
2022/04/16 06:22:51;;;;;;;14.85;8.02;;;7.30;99.90;;;;;;5007838;28;20046;-67
2022/04/16 06:25:17;;;;;;;14.27;7.57;;;7.50;99.90;;;;;;5007840;28;20112;-67
2022/04/16 06:27:42;;;;;;;13.57;6.78;;;7.70;99.90;;;;;;5008616;28;20042;-68
2022/04/16 06:30:10;;;;;;;12.80;7.50;;;7.80;99.90;;;;;;4990315;28;20053;-67
2022/04/16 06:32:37;;;;;;;14.18;7.00;;;7.80;99.90;;;;;;5007199;28;20161;-67
2022/04/16 06:35:05;;;;;;;13.70;6.30;;;7.60;99.90;;;;;;5006516;28;20050;-67
2022/04/16 06:37:34;;;;;;;8.82;5.45;;;7.60;99.90;;;;;;5006830;28;20050;-67
2022/04/16 06:40:00;;;;;;;12.18;6.57;;;7.60;99.90;;;;;;4986531;28;20372;-67
2022/04/16 06:42:27;;;;;;;10.25;5.93;;;7.60;99.90;;;;;;5000879;28;20041;-67
2022/04/16 06:44:53;;;;;;;13.38;6.78;;;7.50;99.90;;;;;;4990670;28;20412;-66
2022/04/16 06:47:18;;;;;;;11.88;5.90;;;7.50;99.90;;;;;;5006572;28;20084;-67
2022/04/16 06:49:44;;;;;;;8.90;5.47;;;7.50;99.90;;;;;;4990109;28;20058;-67
2022/04/16 06:52:10;;;;;;;11.45;6.63;;;7.50;99.90;;;;;;5005971;28;20397;-66
2022/04/16 06:54:36;;;;;;;8.15;5.30;;;7.50;99.90;;;;;;5015007;28;20053;-66
2022/04/16 06:57:02;;;;;;;11.35;5.13;;;7.60;99.90;;;;;;5026993;28;20120;-67
2022/04/16 06:59:28;;;;;;;7.88;4.90;;;7.60;99.90;;;;;;5026406;28;20562;-66
2022/04/16 07:01:54;;;;;;;4.80;3.28;;;7.70;99.90;;;;;;5010360;28;20057;-66
2022/04/16 07:04:19;;;;;;;5.72;3.67;;;7.80;99.90;;;;;;5006230;28;20531;-67
2022/04/16 07:06:45;;;;;;;9.10;4.18;;;7.80;99.90;;;;;;5002547;28;20054;-66
2022/04/16 07:09:11;;;;;;;5.65;3.95;;;8.00;99.90;;;;;;5006840;28;20417;-66
2022/04/16 07:11:36;;;;;;;6.13;3.88;;;8.20;99.90;;;;;;4994128;28;20152;-66
2022/04/16 07:14:02;;;;;;;4.30;2.70;;;8.30;99.90;;;;;;4985532;28;20050;-67
2022/04/16 07:16:28;;;;;;;6.03;3.35;;;8.40;99.90;;;;;;5000015;28;20049;-66
2022/04/16 07:18:54;;;;;;;8.07;3.88;;;8.50;99.90;;;;;;5021335;28;20046;-67
2022/04/16 07:21:19;;;;;;;3.33;2.05;;;8.60;99.90;;;;;;4989860;28;20088;-67
2022/04/16 07:23:45;;;;;;;3.60;2.92;;;8.70;99.90;;;;;;5007305;28;20041;-66
2022/04/16 07:26:11;;;;;;;5.70;2.83;;;8.70;99.90;;;;;;5007150;28;20041;-66
2022/04/16 07:28:36;;;;;;;7.57;4.25;;;8.80;99.00;;;;;;5007201;28;20042;-66
2022/04/16 07:31:02;;;;;;;2.97;2.50;;;8.90;99.90;;;;;;5003248;28;20037;-67
2022/04/16 07:33:31;;;;;;;4.43;3.05;;;9.00;99.80;;;;;;5007539;28;20107;-66
2022/04/16 07:35:57;;;;;;;3.45;2.25;;;9.00;99.40;;;;;;5004604;28;20281;-67
2022/04/16 07:38:23;;;;;;;4.50;2.60;;;9.20;99.90;;;;;;5007331;28;20050;-67
2022/04/16 07:40:49;;;;;;;12.63;2.65;;;9.20;98.50;;;;;;5004894;28;20509;-67
2022/04/16 07:43:15;;;;;;;3.42;2.22;;;9.20;91.40;;;;;;5005480;28;20049;-67
2022/04/16 07:45:41;;;;;;;2.80;2.03;;;9.20;94.40;;;;;;5005529;28;20519;-67
2022/04/16 07:48:07;;;;;;;2.95;2.00;;;9.30;94.80;;;;;;5004364;28;20107;-69
2022/04/16 07:50:33;;;;;;;5.20;2.20;;;9.30;92.90;;;;;;5006555;28;20494;-66
2022/04/16 07:52:59;;;;;;;2.13;1.90;;;9.30;89.00;;;;;;5005220;28;20177;-68
2022/04/16 07:55:28;;;;;;;4.93;1.55;;;9.30;90.30;;;;;;5005605;28;20042;-67
2022/04/16 07:57:54;;;;;;;3.78;1.80;;;9.30;88.20;;;;;;5004604;28;20073;-67
2022/04/16 08:00:20;;;;;;;3.05;2.05;;;9.40;92.70;;;;;;5003487;28;20045;-67
2022/04/16 08:02:46;;;;;;;1.92;1.40;;;9.60;90.60;;;;;;5004168;28;20168;-68
2022/04/16 08:05:13;;;;;;;2.45;2.08;;;9.50;82.80;;;;;;4987778;28;20507;-67
2022/04/16 08:07:38;;;;;;;2.63;1.90;;;9.60;91.40;;;;;;5005828;28;20048;-67
2022/04/16 08:10:04;;;;;;;2.33;1.80;;;9.60;85.50;;;;;;5004051;28;20046;-67
2022/04/16 08:12:30;;;;;;;1.98;1.63;;;9.50;80.50;;;;;;4986016;28;20081;-67
2022/04/16 08:14:56;;;;;;;3.10;1.58;;;9.40;80.10;;;;;;4986457;28;20077;-67
2022/04/16 08:17:21;;;;;;;3.22;1.67;;;9.40;80.20;;;;;;4986133;28;20047;-67
2022/04/16 08:19:47;;;;;;;1.92;1.58;;;9.50;89.30;;;;;;4985305;28;20397;-67
2022/04/16 08:22:18;;;;;;;1.98;1.65;;;9.50;81.80;;;;;;4998608;28;20078;-67
2022/04/16 08:27:33;;;;;;;;;;;9.70;81.20;;;;;;4998009;28;20040;-67
2022/04/16 08:29:59;;;;;;;4.22;1.40;;;9.80;87.60;;;;;;5005920;28;20383;-67
2022/04/16 08:32:25;;;;;;;2.92;1.73;;;10.10;90.30;;;;;;4978364;28;20047;-67
2022/04/16 08:34:51;;;;;;;4.60;1.58;;;10.20;88.00;;;;;;4995658;28;20046;-67
2022/04/16 08:37:17;;;;;;;3.75;1.70;;;10.20;75.70;;;;;;5004642;28;20507;-66
2022/04/16 08:39:42;;;;;;;1.75;1.55;;;10.20;87.90;;;;;;5005240;28;20089;-67
2022/04/16 08:42:08;;;;;;;2.20;1.58;;;10.30;80.40;;;;;;5003468;28;20054;-66
2022/04/16 08:44:35;;;;;;;4.72;1.20;;;10.30;80.70;;;;;;5005971;28;20115;-66
2022/04/16 08:47:08;;;;;;;2.33;1.45;;;10.40;81.30;;;;;;5005475;28;20076;-66
2022/04/16 08:49:34;;;;;;;2.50;1.42;;;10.20;68.40;;;;;;5003518;28;20042;-66
2022/04/16 08:52:02;;;;;;;1.65;1.40;;;10.20;73.70;;;;;;5005824;28;20104;-66
2022/04/16 08:54:28;;;;;;;3.20;1.52;;;10.20;83.80;;;;;;5003551;28;20085;-66
2022/04/16 08:56:55;;;;;;;1.77;1.38;;;10.30;69.70;;;;;;5004718;28;20085;-67
2022/04/16 08:59:20;;;;;;;1.98;0.93;;;10.40;65.00;;;;;;5006151;28;20054;-67
2022/04/16 09:01:52;;;;;;;1.60;1.17;;;10.50;68.00;;;;;;5004683;28;20050;-68
2022/04/16 09:04:22;;;;;;;1.55;1.33;;;10.50;66.50;;;;;;5006501;28;20080;-68
2022/04/16 09:06:59;;;;;;;3.05;1.88;;;10.40;70.30;;;;;;5006011;28;20318;-68
2022/04/16 09:09:25;;;;;;;3.20;1.92;;;10.30;66.00;;;;;;5007424;28;20054;-68
2022/04/16 09:11:51;;;;;;;1.63;1.50;;;10.30;67.80;;;;;;5008112;28;20125;-67
2022/04/16 09:14:17;;;;;;;2.90;2.30;;;10.40;69.60;;;;;;5007347;28;20046;-68
2022/04/16 09:16:42;;;;;;;6.63;1.92;;;10.50;61.80;;;;;;5009975;28;20053;-68
2022/04/16 09:19:17;;;;;;;7.82;1.50;;;10.70;75.20;;;;;;5007556;28;20133;-67
2022/04/16 09:21:44;;;;;;;1.70;1.60;;;10.80;70.40;;;;;;5008431;28;20065;-68
2022/04/16 09:24:11;;;;;;;5.53;2.58;;;10.80;52.20;;;;;;5006617;28;20045;-67
2022/04/16 09:26:40;;;;;;;3.75;2.30;;;10.80;55.70;;;;;;5007650;28;20038;-68
2022/04/16 09:29:14;;;;;;;2.43;1.30;;;10.70;61.50;;;;;;5007960;28;20068;-68
2022/04/16 09:31:43;;;;;;;5.18;1.50;;;10.70;69.40;;;;;;5007172;28;20300;-66
2022/04/16 09:34:22;;;;;;;1.67;1.48;;;11.00;50.10;;;;;;5008273;28;20586;-65
2022/04/16 09:36:48;;;;;;;1.98;1.08;;;10.80;50.30;;;;;;5006899;28;20057;-66
2022/04/16 09:39:15;;;;;;;0.93;0.82;;;10.80;55.00;;;;;;5004352;28;20046;-66
2022/04/16 09:41:44;;;;;;;1.98;1.52;;;10.90;48.20;;;;;;5006659;28;20521;-66
2022/04/16 09:44:26;;;;;;;1.50;1.38;;;10.70;56.10;;;;;;5008147;28;20550;-66
2022/04/16 09:46:55;;;;;;;3.55;1.70;;;11.00;50.60;;;;;;5006609;28;20061;-68
2022/04/16 09:49:22;;;;;;;2.80;1.70;;;11.00;51.90;;;;;;5006741;28;20050;-65
2022/04/16 09:51:49;;;;;;;6.97;2.10;;;10.90;54.50;;;;;;4991526;28;20084;-65
2022/04/16 09:54:16;;;;;;;3.15;1.70;;;11.10;61.50;;;;;;5008199;28;20034;-66
2022/04/16 09:56:47;;;;;;;2.17;1.45;;;11.00;48.60;;;;;;5007601;28;20052;-66
2022/04/16 09:59:15;;;;;;;1.52;1.40;;;10.90;35.20;;;;;;5008085;28;20096;-65
2022/04/16 10:01:46;;;;;;;6.68;1.30;;;10.90;52.60;;;;;;5008730;28;20057;-65
2022/04/16 10:04:16;;;;;;;2.88;1.60;;;11.10;56.80;;;;;;5007105;28;20111;-65
2022/04/16 10:06:43;;;;;;;1.92;1.30;;;11.40;42.40;;;;;;5006551;28;20077;-65
2022/04/16 10:09:17;;;;;;;2.17;1.23;;;11.50;61.30;;;;;;5007534;28;20084;-65
2022/04/16 10:14:54;;;;;;;3.67;1.85;;;11.40;44.80;;;;;;5007022;28;20508;-64
2022/04/16 10:17:35;;;;;;;5.75;1.95;;;11.40;39.40;;;;;;5008566;28;20508;-65
2022/04/16 10:20:11;;;;;;;3.17;1.98;;;11.30;27.80;;;;;;5007407;28;20068;-65
2022/04/16 10:22:38;;;;;;;2.38;1.95;;;11.40;61.60;;;;;;5027216;28;20056;-64
2022/04/16 10:25:04;;;;;;;3.50;1.98;;;11.50;35.30;;;;;;5027610;28;20110;-65
2022/04/16 10:27:32;;;;;;;2.13;1.30;;;11.70;38.30;;;;;;5018769;28;20038;-65
2022/04/16 10:30:16;;;;;;;1.80;1.30;;;11.80;36.00;;;;;;5008109;28;20120;-65
2022/04/16 10:32:43;;;;;;;3.05;1.55;;;11.80;40.00;;;;;;5008061;28;20504;-65
2022/04/16 10:35:17;;;;;;;2.60;1.40;;;11.90;32.00;;;;;;5008105;28;20056;-66
2022/04/16 10:37:44;;;;;;;3.47;1.42;;;12.10;37.90;;;;;;4986194;28;20081;-65
2022/04/16 10:40:25;;;;;;;4.20;1.55;;;12.00;20.60;;;;;;4970608;28;20050;-66
2022/04/16 10:42:58;;;;;;;2.30;1.38;;;12.00;23.30;;;;;;4972305;28;20042;-66
2022/04/16 10:45:25;;;;;;;3.55;1.55;;;11.80;24.50;;;;;;4950771;28;20050;-65
2022/04/16 10:47:52;;;;;;;1.38;1.17;;;11.60;26.40;;;;;;4956176;28;20466;-66
2022/04/16 10:50:19;;;;;;;1.55;1.40;;;11.70;21.30;;;;;;4987391;28;20105;-66
2022/04/16 10:52:56;;;;;;;2.40;1.27;;;11.70;24.60;;;;;;4988622;28;20046;-66
2022/04/16 10:55:36;;;;;;;1.55;0.90;;;12.00;18.70;;;;;;4983730;28;20082;-66
2022/04/16 10:58:06;;;;;;;2.88;1.60;;;11.80;15.80;;;;;;4986190;28;20077;-66
2022/04/16 11:00:36;;;;;;;3.17;1.75;;;11.90;17.90;;;;;;4970526;28;20412;-67
2022/04/16 11:03:05;;;;;;;;;;;11.70;24.00;;;;;;4998661;28;20673;-67
2022/04/16 11:05:35;;;;;;;3.42;2.15;;;11.70;27.20;;;;;;4981019;28;20396;-66
2022/04/16 11:08:01;;;;;;;5.57;2.70;;;11.90;29.00;;;;;;4985989;28;20069;-66
2022/04/16 11:10:28;;;;;;;4.78;2.65;;;12.00;22.30;;;;;;4971236;28;20232;-66
2022/04/16 11:12:55;;;;;;;8.75;4.25;;;12.10;17.10;;;;;;4987608;28;20084;-66
2022/04/16 11:15:24;;;;;;;5.20;2.25;;;12.10;28.50;;;;;;4970141;28;20374;-67
2022/04/16 11:17:58;;;;;;;3.40;2.20;;;12.20;18.30;;;;;;4955141;28;20054;-66
2022/04/16 11:20:26;;;;;;;3.50;2.40;;;12.30;40.60;;;;;;4986118;28;20046;-67
2022/04/16 11:22:52;;;;;;;4.65;2.15;;;12.60;24.70;;;;;;4969856;28;20524;-66
2022/04/16 11:25:23;;;;;;;3.08;2.38;;;12.40;18.10;;;;;;4976410;28;20046;-67
2022/04/16 11:36:11;;;;;;;2.83;1.88;;;12.30;15.40;;;;;;4987532;28;20603;-67
2022/04/16 11:38:39;;;;;;;3.67;2.22;;;12.40;15.60;;;;;;5004039;28;20439;-66
2022/04/16 11:41:10;;;;;;;2.05;1.75;;;12.40;14.40;;;;;;5005787;28;20069;-66
2022/04/16 11:43:45;;;;;;;4.68;2.38;;;12.50;18.10;;;;;;5005857;28;20077;-67
2022/04/16 11:46:13;;;;;;;3.38;2.17;;;12.50;11.60;;;;;;5004387;28;20129;-66
2022/04/16 11:48:46;;;;;;;2.08;1.90;;;12.60;27.70;;;;;;5005747;28;20046;-66
2022/04/16 11:51:13;;;;;;;3.83;1.85;;;12.70;16.20;;;;;;5006173;28;20046;-66
2022/04/16 11:53:48;;;;;;;1.85;1.67;;;12.70;12.00;;;;;;5006962;28;20050;-65
2022/04/16 11:56:22;;;;;;;2.53;1.83;;;12.60;14.80;;;;;;5006623;28;20180;-67
2022/04/16 11:58:51;;;;;;;5.90;1.98;;;12.80;12.60;;;;;;5006304;28;20574;-66
2022/04/16 12:01:21;;;;;;;;;;;12.70;10.50;;;;;;5007083;28;20531;-67
2022/04/16 12:03:48;;;;;;;4.65;1.85;;;12.70;13.90;;;;;;5003760;28;20012;-67
2022/04/16 12:06:15;;;;;;;2.22;2.00;;;12.90;13.50;;;;;;5006937;28;20100;-67
2022/04/16 12:08:46;;;;;;;1.33;1.20;;;13.10;12.70;;;;;;4988169;28;20080;-67
2022/04/16 12:11:13;;;;;;;2.08;1.42;;;13.10;7.00;;;;;;5006072;28;21039;-67
2022/04/16 12:13:41;;;;;;;1.55;1.38;;;13.00;11.50;;;;;;5006614;28;20582;-68
2022/04/16 12:16:13;;;;;;;2.60;1.33;;;13.10;11.80;;;;;;5006373;28;20053;-67
2022/04/16 12:18:41;;;;;;;3.80;1.70;;;13.30;16.30;;;;;;5006525;28;20486;-67
2022/04/16 12:21:09;;;;;;;1.55;1.15;;;13.60;11.10;;;;;;5003939;28;20034;-67
2022/04/16 12:23:38;;;;;;;5.53;1.83;;;13.50;9.80;;;;;;5004795;28;20061;-67
2022/04/16 12:26:08;;;;;;;5.35;1.13;;;13.40;16.90;;;;;;5004972;28;20531;-67
2022/04/16 12:28:36;;;;;;;2.47;1.30;;;13.30;7.30;;;;;;5004446;28;20131;-67
2022/04/16 12:31:02;;;;;;;5.07;1.80;;;13.50;14.50;;;;;;5005983;28;20049;-67
2022/04/16 12:33:28;;;;;;;1.30;1.20;;;13.50;10.20;;;;;;5006466;28;20289;-67
2022/04/16 12:35:57;;;;;;;5.80;1.50;;;13.40;7.60;;;;;;5009357;28;20057;-67
2022/04/16 12:38:25;;;;;;;2.47;1.85;;;13.40;7.30;;;;;;4991225;28;20050;-67
2022/04/16 12:40:52;;;;;;;5.20;1.70;;;13.50;8.20;;;;;;5010714;28;20038;-67
2022/04/16 12:43:18;;;;;;;2.33;1.17;;;13.50;9.00;;;;;;5024252;28;20049;-68
2022/04/16 12:45:44;;;;;;;1.65;1.20;;;13.50;6.80;;;;;;5010236;28;20164;-68
2022/04/16 12:48:09;;;;;;;4.35;1.83;;;13.40;7.90;;;;;;5012978;28;20112;-67
2022/04/16 12:50:35;;;;;;;2.05;1.70;;;13.40;9.80;;;;;;5024879;28;20049;-67
2022/04/16 12:53:04;;;;;;;2.72;2.00;;;13.40;7.90;;;;;;5009906;28;20073;-68
2022/04/16 12:55:30;;;;;;;2.90;2.20;;;13.20;5.70;;;;;;5008695;28;20060;-68
2022/04/16 12:57:57;;;;;;;2.58;1.55;;;13.20;6.50;;;;;;5008511;28;20064;-67
2022/04/16 13:00:23;;;;;;;4.60;2.72;;;13.20;6.80;;;;;;5006448;28;20133;-66
2022/04/16 13:02:48;;;;;;;3.65;2.40;;;13.60;12.90;;;;;;5005248;28;20120;-67
2022/04/16 13:05:16;;;;;;;3.80;2.40;;;13.70;6.70;;;;;;5003560;28;20516;-68
2022/04/16 13:07:44;;;;;;;3.30;2.08;;;13.70;8.20;;;;;;5004684;28;20060;-67
2022/04/16 13:10:11;;;;;;;3.10;2.22;;;13.60;5.90;;;;;;5009496;28;20046;-67
2022/04/16 13:12:38;;;;;;;3.85;1.80;;;13.50;6.60;;;;;;5008073;28;20119;-68
2022/04/16 13:15:05;;;;;;;1.52;1.42;;;13.50;6.20;;;;;;5007623;28;20437;-68